SBBVSBEG

Guest
Details From SBBV - Boa Vista Intl
To SBEG - Eduardo Gomes
Flight Number -
Tags Generated
Created
Modified
Stats Distance 355 nm / 658 km
Max Altitude 0 ft / 0 m
Waypoints 3
Social Downloads 5
Likes 0
Share VATSIM

Download

Looking for another format? Having issues loading an existing format? Contact us
Advertisement - Login to hide

Notes

Generated

Route

SBBV R2923 SBEG

ID Type Via Altitude Latitude Longitude Leg Dist Tot Dist Heading (true) Name
O SBBV APT - 0 ft / 0 m 2.84077˚ -60.70090˚ - 0 nm - -
R2923 FIX - 0 ft / 0 m -3.03858˚ -60.06189˚ 355 nm 355 nm 174° / 174° -
O SBEG APT - 0 ft / 0 m -3.03858˚ -60.06189˚ 0 nm 355 nm 0° / 180° -

Altitude Profile

Advertisement - Login to hide

Weather


0- 5 10 15 20 25 30 35+ Temperature / ° C

Clouds and Precipitation
Forecast for 2017-12-15 12:00 UTC. Updated 2 hours ago

Ground ~20,000 ft ~40,000 ft Winds

SBBV

Details ICAO SBBV (BVB)
Name Boa Vista Intl
Region Brazil
Timezone America/Boa_Vista (UTC-4.0)
Stats Elevation 275 ft / 84 m (AMSL)
Location 2.846311° -60.690068°
Runways 1
Magnetic Variation 15.418° W

METAR

SBBV 150800Z 10009KT CAVOK 26/22 Q1011

Decode

TAF

TAF SBBV 150400Z 1506/1606 09010KT CAVOK TN25/1510Z TX35/1518Z BECMG 1509/1511 07015KT BECMG 1513/1515 9999 BKN035 FEW040TCU BECMG 1517/1519 09010KT SCT040 FEW045TCU BECMG 1521/1523 CAVOK RMK PDY

Decode

Departure Runways

ID Width Length Bearing (true) Bearing (mag) Surface Threshold Offset Overrun Length
08 148 ft / 45 m 8,871 ft / 2,704 m 62.88° 78.30° Asphalt 300 ft / 91 m 0 ft / 0 m
26 148 ft / 45 m 8,871 ft / 2,704 m 242.88° 258.30° Asphalt 300 ft / 91 m 0 ft / 0 m

SBEG

Details ICAO SBEG (MAO)
Name Eduardo Gomes
Region Brazil
Timezone America/Manaus (UTC-4.0)
Stats Elevation 264 ft / 80 m (AMSL)
Location -3.038611° -60.049723°
Runways 1
Magnetic Variation 15.761° W

METAR

SBEG 150800Z 00000KT 9999 FEW008 SCT100 24/22 Q1012

Decode

TAF

TAF SBEG 150400Z 1506/1606 07002KT 9999 SCT008 TN23/1507Z TX30/1518Z BECMG 1513/1515 12010KT SCT015 BECMG 1517/1518 03010KT 6000 TSRA SCT008 BKN012 FEW025CB BECMG 1520/1522 07005KT 9999 FEW010 RMK PDY

Decode

Destination Runways

ID Width Length Bearing (true) Bearing (mag) Surface Threshold Offset Overrun Length
10 148 ft / 45 m 8,867 ft / 2,703 m 90.13° 105.89° Asphalt 0 ft / 0 m 215 ft / 66 m
28 148 ft / 45 m 8,867 ft / 2,703 m 270.13° 285.89° Asphalt 0 ft / 0 m 250 ft / 76 m

Approach Navaids

Runway Type Ident Frequency Range Bearing (true) Bearing (mag) Slope Elevation
10 Localiser IEG 110.30 MHz 18 nm / 33 km 90.55° 106.31° - 275 ft / 84 m (AMSL)
10 Glidescope IEG 110.30 MHz 10 nm / 19 km 90.13° 105.89° 3.04° 275 ft / 84 m (AMSL)
10 DME IEG 110.30 MHz 18 nm / 33 km - - - 264 ft / 80 m (AMSL)

Popular Alternatives